Aviation Digital Data Service (ADDS)

Output produced by METARs form (0651 UTC 28 February 2015)
found at http://aviationweather.gov/adds/metars/
 
KMSS 280522Z 2806/0106 23009KT P6SM SKC 
     FM281500 23010G17KT P6SM SKC 
     FM010000 23007KT P6SM SKC